Time,TemperatureF,DewpointF,PressureIn,WindDirection,WindDirectionDegrees,WindSpeedMPH,WindSpeedGustMPH,Humidity,HourlyPrecipIn,Conditions,Clouds,dailyrainin,SolarRadiationWatts/m^2,SoftwareType,DateUTC
2013-08-29 00:00:00,75.1,68.5,29.97,ENE,68,0.0,0.0,80,0.00,,---,0.00,0.00,VWS V14.00,2013-08-29 05:00:00,
2013-08-29 00:30:00,74.6,68.8,29.97,ENE,68,0.0,0.0,82,0.00,,---,0.00,0.00,VWS V14.00,2013-08-29 05:30:00,
2013-08-29 01:00:00,74.0,68.5,29.97,ENE,68,0.0,0.0,83,0.00,,---,0.00,0.00,VWS V14.00,2013-08-29 06:00:00,
2013-08-29 01:30:00,73.4,68.3,29.97,ENE,68,0.0,0.0,84,0.00,,---,0.00,0.00,VWS V14.00,2013-08-29 06:30:00,
2013-08-29 02:00:00,73.1,68.3,29.97,ENE,68,0.0,0.0,85,0.00,,---,0.00,0.00,VWS V14.00,2013-08-29 07:00:00,
2013-08-29 02:30:00,72.8,68.7,29.97,ENE,68,0.0,0.0,87,0.00,,---,0.00,0.00,VWS V14.00,2013-08-29 07:30:00,
2013-08-29 03:00:00,72.1,68.0,29.96,ENE,68,0.0,0.0,87,0.00,,---,0.00,0.00,VWS V14.00,2013-08-29 08:00:00,
2013-08-29 03:30:00,71.8,68.1,29.96,ENE,68,0.0,0.0,88,0.00,,---,0.00,0.00,VWS V14.00,2013-08-29 08:30:00,
2013-08-29 04:00:00,72.1,68.7,29.96,ENE,68,0.0,0.0,89,0.00,,---,0.00,0.00,VWS V14.00,2013-08-29 09:00:00,
2013-08-29 04:30:00,71.7,68.3,29.95,ENE,68,0.0,0.0,89,0.00,,---,0.00,0.00,VWS V14.00,2013-08-29 09:30:00,
2013-08-29 05:00:00,71.6,68.5,29.96,ENE,68,0.0,0.0,90,0.00,,---,0.00,0.00,VWS V14.00,2013-08-29 10:00:00,
2013-08-29 05:30:00,71.3,68.2,29.97,ENE,68,0.0,0.0,90,0.00,,---,0.00,0.00,VWS V14.00,2013-08-29 10:30:00,
2013-08-29 06:00:00,71.0,67.9,29.97,ENE,68,0.0,0.0,90,0.00,,---,0.00,0.00,VWS V14.00,2013-08-29 11:00:00,
2013-08-29 06:30:00,71.0,68.2,29.99,ENE,68,0.0,0.0,91,0.00,,---,0.00,0.00,VWS V14.00,2013-08-29 11:30:00,
2013-08-29 07:00:00,71.2,68.4,29.99,ENE,68,0.0,0.0,91,0.00,,---,0.00,3.00,VWS V14.00,2013-08-29 12:00:00,
2013-08-29 07:30:00,71.5,68.7,30.00,ENE,68,0.0,0.0,91,0.00,,---,0.00,16.00,VWS V14.00,2013-08-29 12:30:00,
2013-08-29 08:00:00,72.4,69.0,30.00,ENE,68,0.0,0.0,89,0.00,,---,0.00,27.00,VWS V14.00,2013-08-29 13:00:00,
2013-08-29 08:30:00,73.8,69.3,30.00,ENE,68,0.0,0.0,86,0.00,,---,0.00,42.00,VWS V14.00,2013-08-29 13:30:00,
2013-08-29 09:00:00,76.0,69.8,30.01,ENE,68,0.0,0.0,81,0.00,,---,0.00,54.00,VWS V14.00,2013-08-29 14:00:00,
2013-08-29 09:30:00,78.7,70.9,30.01,ENE,68,0.0,0.0,77,0.00,,---,0.00,110.00,VWS V14.00,2013-08-29 14:30:00,
2013-08-29 10:00:00,80.6,71.2,30.01,ENE,68,0.0,0.0,73,0.00,,---,0.00,132.00,VWS V14.00,2013-08-29 15:00:00,
2013-08-29 10:30:00,83.8,69.9,30.01,East,90,0.0,1.0,63,0.00,,---,0.00,255.00,VWS V14.00,2013-08-29 15:30:00,
2013-08-29 11:00:00,85.6,70.1,30.01,East,90,0.0,0.0,60,0.00,,---,0.00,127.00,VWS V14.00,2013-08-29 16:00:00,
2013-08-29 11:30:00,87.2,70.1,30.00,East,90,0.0,0.0,57,0.00,,---,0.00,139.00,VWS V14.00,2013-08-29 16:30:00,
2013-08-29 12:00:00,88.6,70.4,30.00,ENE,68,0.0,2.0,55,0.00,,---,0.00,126.00,VWS V14.00,2013-08-29 17:00:00,
2013-08-29 12:30:00,90.1,71.2,29.99,ENE,68,0.0,1.0,54,0.00,,---,0.00,180.00,VWS V14.00,2013-08-29 17:30:00,
2013-08-29 13:00:00,90.8,72.4,29.98,ENE,68,0.0,1.0,55,0.00,,---,0.00,344.00,VWS V14.00,2013-08-29 18:00:00,
2013-08-29 13:30:00,91.8,71.7,29.97,NE,45,0.0,2.0,52,0.00,,---,0.00,804.00,VWS V14.00,2013-08-29 18:30:00,
2013-08-29 14:00:00,92.4,72.2,29.96,NE,45,0.0,3.0,52,0.00,,---,0.00,352.00,VWS V14.00,2013-08-29 19:00:00,
2013-08-29 14:30:00,91.1,72.2,29.94,NNE,22,0.0,2.0,54,0.00,,---,0.00,98.00,VWS V14.00,2013-08-29 19:30:00,
2013-08-29 15:00:00,92.7,72.5,29.93,NNE,22,0.0,0.0,52,0.00,,---,0.00,123.00,VWS V14.00,2013-08-29 20:00:00,
2013-08-29 15:30:00,92.3,72.7,29.93,NNE,22,0.0,2.0,53,0.00,,---,0.00,97.00,VWS V14.00,2013-08-29 20:30:00,
2013-08-29 16:00:00,92.8,72.0,29.92,NNE,22,0.0,1.0,51,0.00,,---,0.00,104.00,VWS V14.00,2013-08-29 21:00:00,
2013-08-29 16:30:00,93.2,72.4,29.91,NNE,22,0.0,1.0,51,0.00,,---,0.00,82.00,VWS V14.00,2013-08-29 21:30:00,
2013-08-29 17:00:00,93.1,73.4,29.91,NNE,22,0.0,1.0,53,0.00,,---,0.00,75.00,VWS V14.00,2013-08-29 22:00:00,
2013-08-29 17:30:00,93.2,73.0,29.91,NNE,22,0.0,1.0,52,0.00,,---,0.00,63.00,VWS V14.00,2013-08-29 22:30:00,
2013-08-29 18:00:00,92.5,72.9,29.91,NNE,22,0.0,1.0,53,0.00,,---,0.00,50.00,VWS V14.00,2013-08-29 23:00:00,
2013-08-29 18:30:00,91.8,72.8,29.91,NNE,22,0.0,0.0,54,0.00,,---,0.00,41.00,VWS V14.00,2013-08-29 23:30:00,
2013-08-29 19:00:00,90.9,74.6,29.91,NNE,22,0.0,0.0,59,0.00,,---,0.00,30.00,VWS V14.00,2013-08-30 00:00:00,
2013-08-29 19:30:00,89.3,74.1,29.92,NNE,22,0.0,0.0,61,0.00,,---,0.00,13.00,VWS V14.00,2013-08-30 00:30:00,
2013-08-29 20:00:00,87.2,73.6,29.92,NNE,22,0.0,0.0,64,0.00,,---,0.00,0.00,VWS V14.00,2013-08-30 01:00:00,
2013-08-29 20:30:00,85.7,73.5,29.92,NNE,22,0.0,0.0,67,0.00,,---,0.00,0.00,VWS V14.00,2013-08-30 01:30:00,
2013-08-29 21:00:00,84.4,73.6,29.92,NNE,22,0.0,0.0,70,0.00,,---,0.00,0.00,VWS V14.00,2013-08-30 02:00:00,
2013-08-29 21:30:00,83.4,73.8,29.93,NNE,22,0.0,0.0,73,0.00,,---,0.00,0.00,VWS V14.00,2013-08-30 02:30:00,
2013-08-29 22:00:00,82.4,73.7,29.92,NNE,22,0.0,0.0,75,0.00,,---,0.00,0.00,VWS V14.00,2013-08-30 03:00:00,
2013-08-29 22:30:00,81.5,73.2,29.92,NNE,22,0.0,0.0,76,0.00,,---,0.00,0.00,VWS V14.00,2013-08-30 03:30:00,
2013-08-29 23:00:00,80.7,73.2,29.92,NNE,22,0.0,0.0,78,0.00,,---,0.00,0.00,VWS V14.00,2013-08-30 04:00:00,
2013-08-29 23:30:00,80.2,73.5,29.91,NNE,22,0.0,0.0,80,0.00,,---,0.00,0.00,VWS V14.00,2013-08-30 04:30:00,